sensor_id;sensor_type;location;lat;lon;timestamp;temperature;humidity
15172;DHT22;7686;52.184;9.280;2023-03-01T00:02:11;27.70;29.80
15172;DHT22;7686;52.184;9.280;2023-03-01T00:04:37;27.80;29.90
15172;DHT22;7686;52.184;9.280;2023-03-01T00:07:04;27.70;29.90
15172;DHT22;7686;52.184;9.280;2023-03-01T00:09:30;27.70;29.90
15172;DHT22;7686;52.184;9.280;2023-03-01T00:11:57;27.70;29.90
15172;DHT22;7686;52.184;9.280;2023-03-01T00:14:23;27.70;29.90
15172;DHT22;7686;52.184;9.280;2023-03-01T00:16:50;27.70;30.00
15172;DHT22;7686;52.184;9.280;2023-03-01T00:19:19;27.60;29.90
15172;DHT22;7686;52.184;9.280;2023-03-01T00:21:46;27.60;29.90
15172;DHT22;7686;52.184;9.280;2023-03-01T00:24:13;27.60;29.90
15172;DHT22;7686;52.184;9.280;2023-03-01T00:26:40;27.60;29.90
15172;DHT22;7686;52.184;9.280;2023-03-01T00:29:07;27.60;29.90
15172;DHT22;7686;52.184;9.280;2023-03-01T00:31:34;27.60;30.00
15172;DHT22;7686;52.184;9.280;2023-03-01T00:34:03;27.60;30.00
15172;DHT22;7686;52.184;9.280;2023-03-01T00:36:32;27.50;29.90
15172;DHT22;7686;52.184;9.280;2023-03-01T00:39:01;27.50;30.00
15172;DHT22;7686;52.184;9.280;2023-03-01T00:41:29;27.50;30.00
15172;DHT22;7686;52.184;9.280;2023-03-01T00:43:56;27.50;30.00
15172;DHT22;7686;52.184;9.280;2023-03-01T00:46:26;27.50;30.00
15172;DHT22;7686;52.184;9.280;2023-03-01T00:48:53;27.50;30.00
15172;DHT22;7686;52.184;9.280;2023-03-01T00:51:25;27.50;30.00
15172;DHT22;7686;52.184;9.280;2023-03-01T00:53:54;27.40;30.00
15172;DHT22;7686;52.184;9.280;2023-03-01T00:56:21;27.40;30.00
15172;DHT22;7686;52.184;9.280;2023-03-01T00:58:49;27.40;30.00
15172;DHT22;7686;52.184;9.280;2023-03-01T01:01:18;27.40;30.00
15172;DHT22;7686;52.184;9.280;2023-03-01T01:04:00;27.30;30.00
15172;DHT22;7686;52.184;9.280;2023-03-01T01:06:29;27.30;30.00
15172;DHT22;7686;52.184;9.280;2023-03-01T01:08:57;27.30;30.00
15172;DHT22;7686;52.184;9.280;2023-03-01T01:11:25;27.30;30.00
15172;DHT22;7686;52.184;9.280;2023-03-01T01:13:52;27.30;30.00
15172;DHT22;7686;52.184;9.280;2023-03-01T01:16:21;27.30;30.60
15172;DHT22;7686;52.184;9.280;2023-03-01T01:18:49;27.30;30.00
15172;DHT22;7686;52.184;9.280;2023-03-01T01:21:18;27.20;29.90
15172;DHT22;7686;52.184;9.280;2023-03-01T01:23:46;27.20;30.00
15172;DHT22;7686;52.184;9.280;2023-03-01T01:28:44;27.20;30.00
15172;DHT22;7686;52.184;9.280;2023-03-01T01:31:11;27.20;30.00
15172;DHT22;7686;52.184;9.280;2023-03-01T01:33:38;27.10;29.90
15172;DHT22;7686;52.184;9.280;2023-03-01T01:36:06;27.10;30.00
15172;DHT22;7686;52.184;9.280;2023-03-01T01:38:34;27.10;30.00
15172;DHT22;7686;52.184;9.280;2023-03-01T01:41:00;27.10;30.00
15172;DHT22;7686;52.184;9.280;2023-03-01T01:43:31;27.10;30.00
15172;DHT22;7686;52.184;9.280;2023-03-01T01:48:39;27.00;30.00
15172;DHT22;7686;52.184;9.280;2023-03-01T01:51:13;27.00;30.00
15172;DHT22;7686;52.184;9.280;2023-03-01T01:53:42;27.00;30.00
15172;DHT22;7686;52.184;9.280;2023-03-01T01:56:11;27.00;30.00
15172;DHT22;7686;52.184;9.280;2023-03-01T01:58:41;27.00;30.00
15172;DHT22;7686;52.184;9.280;2023-03-01T02:01:09;27.00;30.00
15172;DHT22;7686;52.184;9.280;2023-03-01T02:03:37;27.00;30.00
15172;DHT22;7686;52.184;9.280;2023-03-01T02:06:26;27.00;30.00
15172;DHT22;7686;52.184;9.280;2023-03-01T02:09:05;26.90;30.00
15172;DHT22;7686;52.184;9.280;2023-03-01T02:11:33;26.90;30.00
15172;DHT22;7686;52.184;9.280;2023-03-01T02:14:00;26.90;30.00
15172;DHT22;7686;52.184;9.280;2023-03-01T02:16:27;26.90;30.00
15172;DHT22;7686;52.184;9.280;2023-03-01T02:18:56;26.90;30.00
15172;DHT22;7686;52.184;9.280;2023-03-01T02:24:41;26.80;29.90
15172;DHT22;7686;52.184;9.280;2023-03-01T02:27:12;26.80;29.90
15172;DHT22;7686;52.184;9.280;2023-03-01T02:29:38;26.80;29.90
15172;DHT22;7686;52.184;9.280;2023-03-01T02:32:05;26.80;29.90
15172;DHT22;7686;52.184;9.280;2023-03-01T02:34:33;26.80;29.90
15172;DHT22;7686;52.184;9.280;2023-03-01T02:37:00;26.80;30.00
15172;DHT22;7686;52.184;9.280;2023-03-01T02:39:39;26.80;30.00
15172;DHT22;7686;52.184;9.280;2023-03-01T02:42:12;26.80;30.00
15172;DHT22;7686;52.184;9.280;2023-03-01T02:44:39;26.70;30.00
15172;DHT22;7686;52.184;9.280;2023-03-01T02:47:06;26.70;30.00
15172;DHT22;7686;52.184;9.280;2023-03-01T02:49:34;26.70;30.00
15172;DHT22;7686;52.184;9.280;2023-03-01T02:52:11;26.70;30.00
15172;DHT22;7686;52.184;9.280;2023-03-01T02:55:02;26.70;30.00
15172;DHT22;7686;52.184;9.280;2023-03-01T02:57:31;26.70;30.00
15172;DHT22;7686;52.184;9.280;2023-03-01T03:00:03;26.70;30.00
15172;DHT22;7686;52.184;9.280;2023-03-01T03:02:34;26.70;30.10
15172;DHT22;7686;52.184;9.280;2023-03-01T03:05:13;26.70;30.00
15172;DHT22;7686;52.184;9.280;2023-03-01T03:07:43;26.70;30.10
15172;DHT22;7686;52.184;9.280;2023-03-01T03:10:13;26.70;30.10
15172;DHT22;7686;52.184;9.280;2023-03-01T03:12:40;26.70;30.10
15172;DHT22;7686;52.184;9.280;2023-03-01T03:15:09;26.70;30.10
15172;DHT22;7686;52.184;9.280;2023-03-01T03:17:37;26.60;30.00
15172;DHT22;7686;52.184;9.280;2023-03-01T03:20:06;26.60;30.00
15172;DHT22;7686;52.184;9.280;2023-03-01T03:22:40;26.60;30.10
15172;DHT22;7686;52.184;9.280;2023-03-01T03:25:07;26.60;30.10
15172;DHT22;7686;52.184;9.280;2023-03-01T03:27:39;26.60;30.80
15172;DHT22;7686;52.184;9.280;2023-03-01T03:30:08;26.60;30.10
15172;DHT22;7686;52.184;9.280;2023-03-01T03:32:36;26.60;30.10
15172;DHT22;7686;52.184;9.280;2023-03-01T03:35:04;26.50;30.00
15172;DHT22;7686;52.184;9.280;2023-03-01T03:37:40;26.60;30.10
15172;DHT22;7686;52.184;9.280;2023-03-01T03:40:25;26.60;30.10
15172;DHT22;7686;52.184;9.280;2023-03-01T03:42:52;26.60;30.10
15172;DHT22;7686;52.184;9.280;2023-03-01T03:45:19;26.50;30.10
15172;DHT22;7686;52.184;9.280;2023-03-01T03:47:46;26.50;30.10
15172;DHT22;7686;52.184;9.280;2023-03-01T03:50:15;26.50;30.10
15172;DHT22;7686;52.184;9.280;2023-03-01T03:52:42;26.50;30.10
15172;DHT22;7686;52.184;9.280;2023-03-01T03:55:11;26.50;30.10
15172;DHT22;7686;52.184;9.280;2023-03-01T03:57:39;26.50;30.20
15172;DHT22;7686;52.184;9.280;2023-03-01T04:00:08;26.50;30.20
15172;DHT22;7686;52.184;9.280;2023-03-01T04:02:42;26.50;30.10
15172;DHT22;7686;52.184;9.280;2023-03-01T04:05:10;26.50;30.10
15172;DHT22;7686;52.184;9.280;2023-03-01T04:07:38;26.50;30.10
15172;DHT22;7686;52.184;9.280;2023-03-01T04:10:07;26.40;30.10
15172;DHT22;7686;52.184;9.280;2023-03-01T04:12:34;26.40;30.10
15172;DHT22;7686;52.184;9.280;2023-03-01T04:15:02;26.40;30.10
15172;DHT22;7686;52.184;9.280;2023-03-01T04:17:40;26.40;30.10
15172;DHT22;7686;52.184;9.280;2023-03-01T04:20:15;26.40;30.10
15172;DHT22;7686;52.184;9.280;2023-03-01T04:22:55;26.40;30.90
15172;DHT22;7686;52.184;9.280;2023-03-01T04:25:24;26.40;30.20
15172;DHT22;7686;52.184;9.280;2023-03-01T04:27:51;26.40;30.20
15172;DHT22;7686;52.184;9.280;2023-03-01T04:30:17;26.40;30.20
15172;DHT22;7686;52.184;9.280;2023-03-01T04:32:44;26.40;30.20
15172;DHT22;7686;52.184;9.280;2023-03-01T04:35:11;26.40;30.30
15172;DHT22;7686;52.184;9.280;2023-03-01T04:37:37;26.40;30.30
15172;DHT22;7686;52.184;9.280;2023-03-01T04:40:05;26.30;30.20
15172;DHT22;7686;52.184;9.280;2023-03-01T04:42:39;26.30;30.30
15172;DHT22;7686;52.184;9.280;2023-03-01T04:45:06;26.30;30.30
15172;DHT22;7686;52.184;9.280;2023-03-01T04:47:40;26.30;30.30
15172;DHT22;7686;52.184;9.280;2023-03-01T04:50:07;26.30;30.30
15172;DHT22;7686;52.184;9.280;2023-03-01T04:52:35;26.30;30.50
15172;DHT22;7686;52.184;9.280;2023-03-01T04:55:02;26.30;30.40
15172;DHT22;7686;52.184;9.280;2023-03-01T04:57:30;26.30;30.50
15172;DHT22;7686;52.184;9.280;2023-03-01T04:59:56;26.30;30.50
15172;DHT22;7686;52.184;9.280;2023-03-01T05:02:23;26.40;30.60
15172;DHT22;7686;52.184;9.280;2023-03-01T05:04:50;26.40;30.50
15172;DHT22;7686;52.184;9.280;2023-03-01T05:07:16;26.40;30.60
15172;DHT22;7686;52.184;9.280;2023-03-01T05:09:46;26.40;30.50
15172;DHT22;7686;52.184;9.280;2023-03-01T05:12:14;26.50;30.60
15172;DHT22;7686;52.184;9.280;2023-03-01T05:14:41;26.50;30.50
15172;DHT22;7686;52.184;9.280;2023-03-01T05:17:08;26.50;30.60
15172;DHT22;7686;52.184;9.280;2023-03-01T05:19:34;26.60;30.50
15172;DHT22;7686;52.184;9.280;2023-03-01T05:22:01;26.70;30.60
15172;DHT22;7686;52.184;9.280;2023-03-01T05:24:30;26.70;30.50
15172;DHT22;7686;52.184;9.280;2023-03-01T05:26:57;26.70;30.40
15172;DHT22;7686;52.184;9.280;2023-03-01T05:29:25;26.80;30.40
15172;DHT22;7686;52.184;9.280;2023-03-01T05:31:53;26.90;30.40
15172;DHT22;7686;52.184;9.280;2023-03-01T05:34:27;26.90;30.30
15172;DHT22;7686;52.184;9.280;2023-03-01T05:36:54;26.90;30.20
15172;DHT22;7686;52.184;9.280;2023-03-01T05:39:23;27.00;30.20
15172;DHT22;7686;52.184;9.280;2023-03-01T05:41:53;27.00;30.10
15172;DHT22;7686;52.184;9.280;2023-03-01T05:44:20;27.00;30.10
15172;DHT22;7686;52.184;9.280;2023-03-01T05:46:47;27.00;30.00
15172;DHT22;7686;52.184;9.280;2023-03-01T05:49:14;27.10;30.20
15172;DHT22;7686;52.184;9.280;2023-03-01T05:51:42;27.10;30.00
15172;DHT22;7686;52.184;9.280;2023-03-01T05:54:10;27.10;30.00
15172;DHT22;7686;52.184;9.280;2023-03-01T05:56:37;27.20;30.00
15172;DHT22;7686;52.184;9.280;2023-03-01T05:59:04;27.20;30.50
15172;DHT22;7686;52.184;9.280;2023-03-01T06:01:35;27.20;30.00
15172;DHT22;7686;52.184;9.280;2023-03-01T06:04:02;27.20;30.00
15172;DHT22;7686;52.184;9.280;2023-03-01T06:06:30;27.30;30.00
15172;DHT22;7686;52.184;9.280;2023-03-01T06:09:00;27.30;30.00
15172;DHT22;7686;52.184;9.280;2023-03-01T06:11:26;27.30;30.00
15172;DHT22;7686;52.184;9.280;2023-03-01T06:13:53;27.30;30.10
15172;DHT22;7686;52.184;9.280;2023-03-01T06:16:19;27.40;30.10
15172;DHT22;7686;52.184;9.280;2023-03-01T06:18:46;27.40;30.10
15172;DHT22;7686;52.184;9.280;2023-03-01T06:21:13;27.40;30.10
15172;DHT22;7686;52.184;9.280;2023-03-01T06:23:40;27.40;30.10
15172;DHT22;7686;52.184;9.280;2023-03-01T06:26:08;27.40;30.10
15172;DHT22;7686;52.184;9.280;2023-03-01T06:28:35;27.50;30.10
15172;DHT22;7686;52.184;9.280;2023-03-01T06:31:02;27.50;30.10
15172;DHT22;7686;52.184;9.280;2023-03-01T06:33:29;27.50;30.10
15172;DHT22;7686;52.184;9.280;2023-03-01T06:35:55;27.50;30.00
15172;DHT22;7686;52.184;9.280;2023-03-01T06:38:25;27.50;30.10
15172;DHT22;7686;52.184;9.280;2023-03-01T06:40:53;27.50;30.00
15172;DHT22;7686;52.184;9.280;2023-03-01T06:43:21;27.50;30.00
15172;DHT22;7686;52.184;9.280;2023-03-01T06:45:48;27.60;29.90
15172;DHT22;7686;52.184;9.280;2023-03-01T06:48:15;27.60;29.90
15172;DHT22;7686;52.184;9.280;2023-03-01T06:50:42;27.60;29.90
15172;DHT22;7686;52.184;9.280;2023-03-01T06:53:08;27.60;30.00
15172;DHT22;7686;52.184;9.280;2023-03-01T06:55:35;27.60;30.00
15172;DHT22;7686;52.184;9.280;2023-03-01T06:58:02;27.60;30.00
15172;DHT22;7686;52.184;9.280;2023-03-01T07:00:29;27.60;30.00
15172;DHT22;7686;52.184;9.280;2023-03-01T07:02:59;27.60;30.00
15172;DHT22;7686;52.184;9.280;2023-03-01T07:05:27;27.60;30.00
15172;DHT22;7686;52.184;9.280;2023-03-01T07:07:53;27.60;30.00
15172;DHT22;7686;52.184;9.280;2023-03-01T07:10:21;27.60;30.00
15172;DHT22;7686;52.184;9.280;2023-03-01T07:12:48;27.60;30.00
15172;DHT22;7686;52.184;9.280;2023-03-01T07:15:14;27.60;30.00
15172;DHT22;7686;52.184;9.280;2023-03-01T07:17:41;27.60;30.00
15172;DHT22;7686;52.184;9.280;2023-03-01T07:20:08;27.70;30.10
15172;DHT22;7686;52.184;9.280;2023-03-01T07:22:36;27.70;30.20
15172;DHT22;7686;52.184;9.280;2023-03-01T07:25:02;27.70;30.20
15172;DHT22;7686;52.184;9.280;2023-03-01T07:27:29;27.70;30.10
15172;DHT22;7686;52.184;9.280;2023-03-01T07:29:55;27.70;30.10
15172;DHT22;7686;52.184;9.280;2023-03-01T07:32:22;27.70;30.10
15172;DHT22;7686;52.184;9.280;2023-03-01T07:34:50;27.80;30.10
15172;DHT22;7686;52.184;9.280;2023-03-01T07:37:17;27.80;30.20
15172;DHT22;7686;52.184;9.280;2023-03-01T07:39:44;27.80;30.20
15172;DHT22;7686;52.184;9.280;2023-03-01T07:42:10;27.80;30.20
15172;DHT22;7686;52.184;9.280;2023-03-01T07:44:37;27.80;30.20
15172;DHT22;7686;52.184;9.280;2023-03-01T07:47:04;27.80;30.20
15172;DHT22;7686;52.184;9.280;2023-03-01T07:49:31;27.90;30.30
15172;DHT22;7686;52.184;9.280;2023-03-01T07:51:57;27.90;30.30
15172;DHT22;7686;52.184;9.280;2023-03-01T07:54:24;27.90;30.30
15172;DHT22;7686;52.184;9.280;2023-03-01T07:56:52;27.90;30.30
15172;DHT22;7686;52.184;9.280;2023-03-01T07:59:21;27.90;30.30
15172;DHT22;7686;52.184;9.280;2023-03-01T08:01:47;28.00;30.30
15172;DHT22;7686;52.184;9.280;2023-03-01T08:04:14;28.00;30.40
15172;DHT22;7686;52.184;9.280;2023-03-01T08:06:40;28.00;30.30
15172;DHT22;7686;52.184;9.280;2023-03-01T08:09:07;28.00;30.30
15172;DHT22;7686;52.184;9.280;2023-03-01T08:11:34;28.00;30.30
15172;DHT22;7686;52.184;9.280;2023-03-01T08:14:01;28.10;30.40
15172;DHT22;7686;52.184;9.280;2023-03-01T08:16:28;28.10;30.30
15172;DHT22;7686;52.184;9.280;2023-03-01T08:18:55;28.10;30.30
15172;DHT22;7686;52.184;9.280;2023-03-01T08:21:25;28.10;30.30
15172;DHT22;7686;52.184;9.280;2023-03-01T08:23:52;28.10;30.40
15172;DHT22;7686;52.184;9.280;2023-03-01T08:26:20;28.20;30.50
15172;DHT22;7686;52.184;9.280;2023-03-01T08:28:48;28.20;30.60
15172;DHT22;7686;52.184;9.280;2023-03-01T08:31:18;28.20;30.60
15172;DHT22;7686;52.184;9.280;2023-03-01T08:33:47;28.20;30.60
15172;DHT22;7686;52.184;9.280;2023-03-01T08:36:17;28.20;30.60
15172;DHT22;7686;52.184;9.280;2023-03-01T08:38:44;28.30;30.70
15172;DHT22;7686;52.184;9.280;2023-03-01T08:41:10;28.30;30.70
15172;DHT22;7686;52.184;9.280;2023-03-01T08:43:37;28.30;30.70
15172;DHT22;7686;52.184;9.280;2023-03-01T08:46:04;28.40;30.80
15172;DHT22;7686;52.184;9.280;2023-03-01T08:48:30;28.40;30.80
15172;DHT22;7686;52.184;9.280;2023-03-01T08:51:07;28.40;30.80
15172;DHT22;7686;52.184;9.280;2023-03-01T08:53:34;28.40;30.80
15172;DHT22;7686;52.184;9.280;2023-03-01T08:56:00;28.50;30.80
15172;DHT22;7686;52.184;9.280;2023-03-01T08:58:29;28.50;30.80
15172;DHT22;7686;52.184;9.280;2023-03-01T09:00:57;28.60;30.80
15172;DHT22;7686;52.184;9.280;2023-03-01T09:03:25;28.70;30.90
15172;DHT22;7686;52.184;9.280;2023-03-01T09:05:52;28.70;31.60
15172;DHT22;7686;52.184;9.280;2023-03-01T09:08:20;28.70;30.80
15172;DHT22;7686;52.184;9.280;2023-03-01T09:10:46;28.80;30.90
15172;DHT22;7686;52.184;9.280;2023-03-01T09:13:13;28.80;30.90
15172;DHT22;7686;52.184;9.280;2023-03-01T09:15:39;28.90;30.90
15172;DHT22;7686;52.184;9.280;2023-03-01T09:18:06;29.00;30.90
15172;DHT22;7686;52.184;9.280;2023-03-01T09:20:33;29.00;30.80
15172;DHT22;7686;52.184;9.280;2023-03-01T09:22:59;29.10;30.80
15172;DHT22;7686;52.184;9.280;2023-03-01T09:25:26;29.20;30.80
15172;DHT22;7686;52.184;9.280;2023-03-01T09:27:53;29.30;30.90
15172;DHT22;7686;52.184;9.280;2023-03-01T09:30:21;29.50;30.80
15172;DHT22;7686;52.184;9.280;2023-03-01T09:32:47;29.60;30.80
15172;DHT22;7686;52.184;9.280;2023-03-01T09:35:14;29.80;30.60
15172;DHT22;7686;52.184;9.280;2023-03-01T09:37:41;30.00;30.60
15172;DHT22;7686;52.184;9.280;2023-03-01T09:40:17;30.20;30.60
15172;DHT22;7686;52.184;9.280;2023-03-01T09:43:01;30.50;30.20
15172;DHT22;7686;52.184;9.280;2023-03-01T09:45:38;30.70;30.00
15172;DHT22;7686;52.184;9.280;2023-03-01T09:48:15;30.90;29.90
15172;DHT22;7686;52.184;9.280;2023-03-01T09:50:43;31.20;29.80
15172;DHT22;7686;52.184;9.280;2023-03-01T09:53:25;31.40;29.70
15172;DHT22;7686;52.184;9.280;2023-03-01T09:56:00;31.60;29.40
15172;DHT22;7686;52.184;9.280;2023-03-01T10:01:29;32.00;29.10
15172;DHT22;7686;52.184;9.280;2023-03-01T10:06:43;32.40;28.80
15172;DHT22;7686;52.184;9.280;2023-03-01T10:09:13;32.60;28.70
15172;DHT22;7686;52.184;9.280;2023-03-01T10:11:46;32.80;28.50
15172;DHT22;7686;52.184;9.280;2023-03-01T10:14:24;32.90;28.30
15172;DHT22;7686;52.184;9.280;2023-03-01T10:16:58;33.10;28.20
15172;DHT22;7686;52.184;9.280;2023-03-01T10:19:41;33.20;28.10
15172;DHT22;7686;52.184;9.280;2023-03-01T10:22:21;33.30;27.80
15172;DHT22;7686;52.184;9.280;2023-03-01T10:24:50;33.50;27.80
15172;DHT22;7686;52.184;9.280;2023-03-01T10:27:34;33.60;27.70
15172;DHT22;7686;52.184;9.280;2023-03-01T10:30:20;33.60;27.50
15172;DHT22;7686;52.184;9.280;2023-03-01T10:32:50;33.80;27.50
15172;DHT22;7686;52.184;9.280;2023-03-01T10:35:24;33.80;27.30
15172;DHT22;7686;52.184;9.280;2023-03-01T10:38:12;33.90;27.30
15172;DHT22;7686;52.184;9.280;2023-03-01T10:41:05;33.90;27.20
15172;DHT22;7686;52.184;9.280;2023-03-01T10:49:13;34.00;26.90
15172;DHT22;7686;52.184;9.280;2023-03-01T10:51:43;34.00;26.80
15172;DHT22;7686;52.184;9.280;2023-03-01T10:54:28;34.00;26.90
15172;DHT22;7686;52.184;9.280;2023-03-01T10:56:57;33.90;26.80
15172;DHT22;7686;52.184;9.280;2023-03-01T10:59:35;33.90;26.80
15172;DHT22;7686;52.184;9.280;2023-03-01T11:02:23;33.80;26.70
15172;DHT22;7686;52.184;9.280;2023-03-01T11:07:28;33.60;26.70
15172;DHT22;7686;52.184;9.280;2023-03-01T11:09:55;33.60;26.90
15172;DHT22;7686;52.184;9.280;2023-03-01T11:12:22;33.60;27.00
15172;DHT22;7686;52.184;9.280;2023-03-01T11:14:53;33.50;27.00
15172;DHT22;7686;52.184;9.280;2023-03-01T11:17:31;33.40;27.00
15172;DHT22;7686;52.184;9.280;2023-03-01T11:22:52;33.30;27.00
15172;DHT22;7686;52.184;9.280;2023-03-01T11:25:24;33.30;27.00
15172;DHT22;7686;52.184;9.280;2023-03-01T11:27:53;33.20;27.10
15172;DHT22;7686;52.184;9.280;2023-03-01T11:30:21;33.20;27.10
15172;DHT22;7686;52.184;9.280;2023-03-01T11:35:28;33.20;27.20
15172;DHT22;7686;52.184;9.280;2023-03-01T11:43:12;33.10;23.40
15172;DHT22;7686;52.184;9.280;2023-03-01T11:45:54;32.80;21.90
15172;DHT22;7686;52.184;9.280;2023-03-01T11:48:31;32.50;22.10
15172;DHT22;7686;52.184;9.280;2023-03-01T11:51:25;32.10;22.00
15172;DHT22;7686;52.184;9.280;2023-03-01T11:56:52;31.40;21.80
15172;DHT22;7686;52.184;9.280;2023-03-01T12:08:14;30.40;23.60
15172;DHT22;7686;52.184;9.280;2023-03-01T12:11:13;30.40;23.70
15172;DHT22;7686;52.184;9.280;2023-03-01T12:14:35;30.30;23.60
15172;DHT22;7686;52.184;9.280;2023-03-01T12:19:55;30.40;24.10
15172;DHT22;7686;52.184;9.280;2023-03-01T12:22:28;30.50;23.90
15172;DHT22;7686;52.184;9.280;2023-03-01T12:25:16;30.60;24.10
15172;DHT22;7686;52.184;9.280;2023-03-01T12:36:20;31.00;23.80
15172;DHT22;7686;52.184;9.280;2023-03-01T12:38:51;31.10;23.70
15172;DHT22;7686;52.184;9.280;2023-03-01T12:41:51;31.20;23.70
15172;DHT22;7686;52.184;9.280;2023-03-01T12:44:59;31.20;23.50
15172;DHT22;7686;52.184;9.280;2023-03-01T12:50:21;31.40;23.50
15172;DHT22;7686;52.184;9.280;2023-03-01T12:52:52;31.50;23.50
15172;DHT22;7686;52.184;9.280;2023-03-01T12:55:38;31.60;23.60
15172;DHT22;7686;52.184;9.280;2023-03-01T13:10:40;31.90;23.20
15172;DHT22;7686;52.184;9.280;2023-03-01T13:13:22;31.90;23.30
15172;DHT22;7686;52.184;9.280;2023-03-01T13:15:50;32.00;23.10
15172;DHT22;7686;52.184;9.280;2023-03-01T13:30:58;32.00;22.30
15172;DHT22;7686;52.184;9.280;2023-03-01T13:35:57;32.00;22.00
15172;DHT22;7686;52.184;9.280;2023-03-01T13:47:14;32.00;23.40
15172;DHT22;7686;52.184;9.280;2023-03-01T13:49:53;32.00;23.30
15172;DHT22;7686;52.184;9.280;2023-03-01T13:53:17;32.00;23.20
15172;DHT22;7686;52.184;9.280;2023-03-01T13:55:44;32.00;23.10
15172;DHT22;7686;52.184;9.280;2023-03-01T14:00:44;32.00;22.70
15172;DHT22;7686;52.184;9.280;2023-03-01T14:03:19;32.00;22.70
15172;DHT22;7686;52.184;9.280;2023-03-01T14:06:08;32.00;22.50
15172;DHT22;7686;52.184;9.280;2023-03-01T14:08:48;32.00;22.50
15172;DHT22;7686;52.184;9.280;2023-03-01T14:19:58;31.90;22.00
15172;DHT22;7686;52.184;9.280;2023-03-01T14:22:35;31.80;22.00
15172;DHT22;7686;52.184;9.280;2023-03-01T14:25:06;31.80;22.00
15172;DHT22;7686;52.184;9.280;2023-03-01T14:27:43;31.70;22.00
15172;DHT22;7686;52.184;9.280;2023-03-01T14:30:19;31.80;22.00
15172;DHT22;7686;52.184;9.280;2023-03-01T14:33:02;31.70;22.00
15172;DHT22;7686;52.184;9.280;2023-03-01T14:35:34;31.70;21.90
15172;DHT22;7686;52.184;9.280;2023-03-01T14:38:02;31.70;22.00
15172;DHT22;7686;52.184;9.280;2023-03-01T14:40:34;31.60;21.90
15172;DHT22;7686;52.184;9.280;2023-03-01T14:43:08;31.70;21.90
15172;DHT22;7686;52.184;9.280;2023-03-01T14:45:36;31.70;21.80
15172;DHT22;7686;52.184;9.280;2023-03-01T14:48:04;31.70;21.90
15172;DHT22;7686;52.184;9.280;2023-03-01T14:50:34;31.60;21.90
15172;DHT22;7686;52.184;9.280;2023-03-01T14:53:04;31.70;21.80
15172;DHT22;7686;52.184;9.280;2023-03-01T14:55:40;31.60;21.90
15172;DHT22;7686;52.184;9.280;2023-03-01T14:58:14;31.60;21.70
15172;DHT22;7686;52.184;9.280;2023-03-01T15:00:53;31.60;21.40
15172;DHT22;7686;52.184;9.280;2023-03-01T15:03:40;31.60;21.30
15172;DHT22;7686;52.184;9.280;2023-03-01T15:06:08;31.60;21.30
15172;DHT22;7686;52.184;9.280;2023-03-01T15:08:37;31.60;21.50
15172;DHT22;7686;52.184;9.280;2023-03-01T15:13:40;31.50;21.30
15172;DHT22;7686;52.184;9.280;2023-03-01T15:18:34;31.40;21.40
15172;DHT22;7686;52.184;9.280;2023-03-01T15:21:31;31.40;21.50
15172;DHT22;7686;52.184;9.280;2023-03-01T15:24:17;31.40;21.40
15172;DHT22;7686;52.184;9.280;2023-03-01T15:26:50;31.40;21.10
15172;DHT22;7686;52.184;9.280;2023-03-01T15:29:22;31.30;21.40
15172;DHT22;7686;52.184;9.280;2023-03-01T15:32:06;31.30;21.10
15172;DHT22;7686;52.184;9.280;2023-03-01T15:34:37;31.30;20.80
15172;DHT22;7686;52.184;9.280;2023-03-01T15:37:46;31.20;20.80
15172;DHT22;7686;52.184;9.280;2023-03-01T15:40:20;31.20;20.70
15172;DHT22;7686;52.184;9.280;2023-03-01T15:42:47;31.10;21.20
15172;DHT22;7686;52.184;9.280;2023-03-01T15:47:47;31.10;20.70
15172;DHT22;7686;52.184;9.280;2023-03-01T15:50:19;31.00;20.40
15172;DHT22;7686;52.184;9.280;2023-03-01T15:52:47;31.00;20.40
15172;DHT22;7686;52.184;9.280;2023-03-01T15:55:28;30.90;20.50
15172;DHT22;7686;52.184;9.280;2023-03-01T15:58:09;30.90;20.20
15172;DHT22;7686;52.184;9.280;2023-03-01T16:00:36;30.80;20.30
15172;DHT22;7686;52.184;9.280;2023-03-01T16:03:12;30.80;20.60
15172;DHT22;7686;52.184;9.280;2023-03-01T16:05:39;30.90;20.70
15172;DHT22;7686;52.184;9.280;2023-03-01T16:08:06;30.70;20.70
15172;DHT22;7686;52.184;9.280;2023-03-01T16:10:34;30.70;20.70
15172;DHT22;7686;52.184;9.280;2023-03-01T16:13:01;30.60;20.40
15172;DHT22;7686;52.184;9.280;2023-03-01T16:15:32;30.60;20.60
15172;DHT22;7686;52.184;9.280;2023-03-01T16:18:03;30.50;20.40
15172;DHT22;7686;52.184;9.280;2023-03-01T16:20:30;30.40;20.50
15172;DHT22;7686;52.184;9.280;2023-03-01T16:23:01;30.30;20.60
15172;DHT22;7686;52.184;9.280;2023-03-01T16:25:29;30.30;20.40
15172;DHT22;7686;52.184;9.280;2023-03-01T16:27:56;30.20;21.00
15172;DHT22;7686;52.184;9.280;2023-03-01T16:30:24;30.20;20.50
15172;DHT22;7686;52.184;9.280;2023-03-01T16:32:52;30.10;20.50
15172;DHT22;7686;52.184;9.280;2023-03-01T16:35:20;30.00;20.50
15172;DHT22;7686;52.184;9.280;2023-03-01T16:37:47;29.90;20.50
15172;DHT22;7686;52.184;9.280;2023-03-01T16:40:20;29.90;20.70
15172;DHT22;7686;52.184;9.280;2023-03-01T16:42:48;29.80;20.70
15172;DHT22;7686;52.184;9.280;2023-03-01T16:45:14;29.70;20.90
15172;DHT22;7686;52.184;9.280;2023-03-01T16:47:51;29.70;21.10
15172;DHT22;7686;52.184;9.280;2023-03-01T16:50:21;29.70;21.20
15172;DHT22;7686;52.184;9.280;2023-03-01T16:52:48;29.60;21.40
15172;DHT22;7686;52.184;9.280;2023-03-01T16:55:14;29.60;21.60
15172;DHT22;7686;52.184;9.280;2023-03-01T16:57:41;29.60;21.70
15172;DHT22;7686;52.184;9.280;2023-03-01T17:00:10;29.50;21.70
15172;DHT22;7686;52.184;9.280;2023-03-01T17:02:39;29.50;22.00
15172;DHT22;7686;52.184;9.280;2023-03-01T17:05:08;29.50;22.00
15172;DHT22;7686;52.184;9.280;2023-03-01T17:07:36;29.50;22.10
15172;DHT22;7686;52.184;9.280;2023-03-01T17:10:04;29.40;22.80
15172;DHT22;7686;52.184;9.280;2023-03-01T17:12:32;29.40;22.40
15172;DHT22;7686;52.184;9.280;2023-03-01T17:15:00;29.50;22.50
15172;DHT22;7686;52.184;9.280;2023-03-01T17:17:27;29.40;22.50
15172;DHT22;7686;52.184;9.280;2023-03-01T17:19:54;29.50;22.70
15172;DHT22;7686;52.184;9.280;2023-03-01T17:22:20;29.40;22.80
15172;DHT22;7686;52.184;9.280;2023-03-01T17:24:47;29.40;22.90
15172;DHT22;7686;52.184;9.280;2023-03-01T17:27:14;29.40;23.00
15172;DHT22;7686;52.184;9.280;2023-03-01T17:29:41;29.30;23.00
15172;DHT22;7686;52.184;9.280;2023-03-01T17:32:08;29.30;23.10
15172;DHT22;7686;52.184;9.280;2023-03-01T17:34:35;29.30;23.20
15172;DHT22;7686;52.184;9.280;2023-03-01T17:37:03;29.30;23.20
15172;DHT22;7686;52.184;9.280;2023-03-01T17:39:29;29.30;23.30
15172;DHT22;7686;52.184;9.280;2023-03-01T17:42:03;29.30;23.40
15172;DHT22;7686;52.184;9.280;2023-03-01T17:44:31;29.20;23.40
15172;DHT22;7686;52.184;9.280;2023-03-01T17:47:00;29.20;23.50
15172;DHT22;7686;52.184;9.280;2023-03-01T17:49:27;29.20;23.70
15172;DHT22;7686;52.184;9.280;2023-03-01T17:51:54;29.20;23.70
15172;DHT22;7686;52.184;9.280;2023-03-01T17:54:21;29.20;23.80
15172;DHT22;7686;52.184;9.280;2023-03-01T17:56:48;29.20;23.90
15172;DHT22;7686;52.184;9.280;2023-03-01T17:59:15;29.20;23.90
15172;DHT22;7686;52.184;9.280;2023-03-01T18:01:43;29.10;23.90